Time;durP1;ratioP1;P1;durP2;ratioP2;P2;SDS_P1;SDS_P2;PMS_P1;PMS_P2;Temp;Humidity;BMP_temperature;BMP_pressure;BME280_temperature;BME280_humidity;BME280_pressure;Samples;Min_cycle;Max_cycle;Signal;HPM_P1;HPM_P2
2022/12/14 00:00:12;;;;;;;40.97;22.98;;;;;;;14.48;59.73;99047.44;4966835;28;20061;-60
2022/12/14 00:02:55;;;;;;;47.80;24.52;;;;;;;14.47;60.10;99046.63;4966744;28;20055;-60
2022/12/14 00:05:51;;;;;;;40.33;23.25;;;;;;;14.41;60.17;99046.72;4966482;28;20054;-60
2022/12/14 00:08:26;;;;;;;41.05;22.38;;;;;;;14.41;60.28;99052.94;4960875;28;20057;-60
2022/12/14 00:11:30;;;;;;;49.85;24.52;;;;;;;14.43;60.19;99061.63;4965559;28;20062;-60
2022/12/14 00:14:06;;;;;;;46.97;23.63;;;;;;;14.33;60.53;99055.13;4965783;28;20071;-60
2022/12/14 00:17:01;;;;;;;43.83;24.90;;;;;;;14.30;61.84;99068.03;4965530;28;20054;-60
2022/12/14 00:19:36;;;;;;;43.88;23.63;;;;;;;14.25;61.13;99065.22;4960086;28;20042;-60
2022/12/14 00:22:28;;;;;;;47.72;24.60;;;;;;;14.26;60.97;99060.66;4954695;28;20518;-60
2022/12/14 00:25:12;;;;;;;49.67;24.35;;;;;;;14.32;60.78;99070.50;4965813;28;20085;-60
2022/12/14 00:28:00;;;;;;;48.75;24.33;;;;;;;14.29;60.75;99065.56;4966796;28;20051;-61
2022/12/14 00:30:43;;;;;;;47.30;23.73;;;;;;;14.27;60.84;99054.19;4965481;28;20047;-62
2022/12/14 00:33:45;;;;;;;49.15;23.58;;;;;;;14.22;61.13;99064.84;4966502;28;20051;-61
2022/12/14 00:36:21;;;;;;;47.95;25.55;;;;;;;14.10;61.12;99056.69;4970142;28;20231;-61
2022/12/14 00:39:09;;;;;;;48.97;24.10;;;;;;;14.19;61.00;99062.59;4969440;28;20042;-62
2022/12/14 00:41:52;;;;;;;44.55;24.70;;;;;;;14.13;61.35;99058.13;4965644;28;20066;-61
2022/12/14 00:44:40;;;;;;;46.28;23.05;;;;;;;14.10;61.44;99054.00;4971593;28;20043;-62
2022/12/14 00:47:31;;;;;;;48.30;24.25;;;;;;;14.03;62.02;99062.19;4969517;28;20070;-62
2022/12/14 00:50:21;;;;;;;48.85;24.95;;;;;;;14.12;61.65;99057.31;4969676;28;20596;-60
2022/12/14 00:53:10;;;;;;;48.95;24.60;;;;;;;14.19;62.28;99058.03;4961676;28;20082;-61
2022/12/14 00:56:05;;;;;;;59.33;25.52;;;;;;;14.30;61.85;99059.13;4970113;28;20075;-62
2022/12/14 00:58:47;;;;;;;46.53;24.83;;;;;;;14.17;60.79;99056.63;4969719;28;20121;-62
2022/12/14 01:01:35;;;;;;;44.35;25.17;;;;;;;14.19;61.78;99057.22;4967433;28;20055;-62
2022/12/14 01:04:18;;;;;;;49.63;25.13;;;;;;;14.18;61.93;99064.50;4969806;28;20522;-61
2022/12/14 01:07:13;;;;;;;54.45;26.20;;;;;;;14.33;61.24;99060.53;4942327;28;20139;-61
2022/12/14 01:09:48;;;;;;;45.25;25.05;;;;;;;14.30;61.65;99061.81;4969395;28;20481;-61
2022/12/14 01:12:36;;;;;;;52.15;25.55;;;;;;;14.27;61.52;99054.19;4950290;29;20110;-61
2022/12/14 01:15:19;;;;;;;45.63;25.35;;;;;;;14.26;62.01;99056.06;4949806;29;20054;-61
2022/12/14 01:18:07;;;;;;;47.45;26.00;;;;;;;14.28;61.41;99055.84;4949990;29;20059;-61
2022/12/14 01:20:57;;;;;;;44.35;24.33;;;;;;;14.27;61.42;99056.88;4959466;28;20047;-62
2022/12/14 01:23:39;;;;;;;46.05;25.20;;;;;;;14.27;61.20;99057.72;4968954;28;20051;-62
2022/12/14 01:26:32;;;;;;;49.38;25.08;;;;;;;14.13;60.87;99053.53;4968442;28;20142;-62
2022/12/14 01:29:20;;;;;;;49.10;26.20;;;;;;;14.10;61.52;99057.53;4968314;28;20070;-61
2022/12/14 01:32:03;;;;;;;49.42;26.23;;;;;;;14.03;61.34;99064.06;4968496;28;20141;-62
2022/12/14 01:34:51;;;;;;;55.83;25.48;;;;;;;13.98;61.79;99066.63;4965751;28;20075;-61
2022/12/14 01:37:41;;;;;;;51.67;27.17;;;;;;;14.05;62.18;99075.47;4969026;28;20058;-61
2022/12/14 01:40:29;;;;;;;46.40;25.92;;;;;;;13.98;62.81;99074.72;4970318;28;20134;-62
2022/12/14 01:43:20;;;;;;;52.60;27.02;;;;;;;14.00;62.83;99069.91;4968197;28;20042;-62
2022/12/14 01:46:02;;;;;;;52.17;26.05;;;;;;;13.94;62.71;99073.53;4969630;28;20093;-62
2022/12/14 01:48:55;;;;;;;53.22;26.20;;;;;;;13.87;62.45;99077.13;4968667;28;20513;-62
2022/12/14 01:51:38;;;;;;;48.53;26.92;;;;;;;13.85;63.25;99071.16;4968868;28;20046;-62
2022/12/14 01:54:28;;;;;;;52.85;28.20;;;;;;;14.08;63.49;99075.00;4968404;28;20055;-62
2022/12/14 01:57:11;;;;;;;57.33;28.30;;;;;;;14.06;63.01;99071.69;4967570;28;20502;-61
2022/12/14 02:00:03;;;;;;;48.42;28.63;;;;;;;14.14;62.57;99073.25;4968368;28;20366;-61
2022/12/14 02:03:11;;;;;;;48.30;28.35;;;;;;;14.27;63.25;99081.16;4962046;28;20051;-62
2022/12/14 02:06:13;;;;;;;60.30;29.60;;;;;;;14.24;63.17;99074.38;4966908;28;20101;-62
2022/12/14 02:08:59;;;;;;;57.22;29.17;;;;;;;14.29;63.00;99081.75;4956030;28;20677;-62
2022/12/14 02:11:51;;;;;;;57.70;30.38;;;;;;;14.22;62.77;99086.44;4935069;28;20054;-61
2022/12/14 02:14:33;;;;;;;59.08;29.40;;;;;;;14.36;62.47;99095.19;4968174;28;20061;-62
2022/12/14 02:17:22;;;;;;;63.72;30.63;;;;;;;14.38;62.71;99098.47;4967319;28;20703;-61
2022/12/14 02:20:04;;;;;;;67.55;33.92;;;;;;;14.52;64.57;99097.25;4968638;28;20777;-61
2022/12/14 02:23:12;;;;;;;62.08;31.13;;;;;;;14.52;62.32;99099.94;4967386;28;20054;-62
2022/12/14 02:26:30;;;;;;;65.85;32.10;;;;;;;14.57;64.00;99102.78;4935212;28;20046;-62
2022/12/14 02:29:31;;;;;;;67.60;31.13;;;;;;;14.54;62.96;99105.94;4929161;28;20058;-61
2022/12/14 02:32:29;;;;;;;66.07;32.05;;;;;;;14.51;63.02;99106.38;4966810;28;20386;-61
2022/12/14 02:35:28;;;;;;;62.38;31.90;;;;;;;14.45;62.60;99110.03;4967739;28;20074;-62
2022/12/14 02:38:40;;;;;;;70.32;32.67;;;;;;;14.61;63.87;99125.59;4949072;29;20074;-61
2022/12/14 02:41:37;;;;;;;75.22;34.80;;;;;;;14.68;64.13;99126.31;4958182;28;20554;-60
2022/12/14 02:44:41;;;;;;;60.75;34.38;;;;;;;14.81;64.49;99132.59;4968920;28;20059;-62
2022/12/14 02:48:06;;;;;;;65.47;34.03;;;;;;;15.07;63.10;99125.91;4962728;28;20055;-62
2022/12/14 02:51:01;;;;;;;68.03;34.58;;;;;;;15.13;64.10;99137.69;4967179;28;20549;-62
2022/12/14 02:54:15;;;;;;;69.85;34.58;;;;;;;15.22;62.47;99139.81;4948232;29;20062;-61
2022/12/14 02:57:28;;;;;;;75.05;37.03;;;;;;;15.29;62.29;99144.31;4965193;28;20058;-62
2022/12/14 03:00:12;;;;;;;82.72;36.15;;;;;;;15.24;62.55;99151.22;4966855;28;20093;-61
2022/12/14 03:03:03;;;;;;;75.47;35.67;;;;;;;15.47;61.75;99147.69;4966445;28;20059;-62
2022/12/14 03:05:46;;;;;;;64.68;34.17;;;;;;;15.59;59.88;99160.41;4963884;28;20573;-62
2022/12/14 03:08:35;;;;;;;72.68;35.65;;;;;;;15.75;59.17;99157.03;4951939;28;20109;-62
2022/12/14 03:11:31;;;;;;;74.53;34.90;;;;;;;15.78;58.62;99153.84;4966652;28;20425;-62
2022/12/14 03:14:39;;;;;;;67.55;34.38;;;;;;;15.93;60.35;99155.22;4947497;29;20503;-61
2022/12/14 03:17:33;;;;;;;67.65;34.22;;;;;;;16.09;58.52;99157.22;4966451;28;20125;-60
2022/12/14 03:20:20;;;;;;;70.20;34.88;;;;;;;16.10;56.95;99158.84;4949390;28;20050;-58
2022/12/14 03:23:15;;;;;;;72.50;34.88;;;;;;;16.43;56.29;99160.88;4966855;28;20117;-60
2022/12/14 03:26:16;;;;;;;67.80;33.15;;;;;;;17.03;55.03;99169.56;4967134;28;20058;-60
2022/12/14 03:29:06;;;;;;;64.35;33.17;;;;;;;17.49;55.88;99177.63;4966881;28;20050;-61
2022/12/14 03:32:01;;;;;;;65.63;33.67;;;;;;;17.94;53.12;99187.53;4966223;28;20668;-61
2022/12/14 03:34:56;;;;;;;80.20;33.30;;;;;;;18.68;50.28;99188.97;4966977;28;20471;-61
2022/12/14 03:37:47;;;;;;;71.88;32.35;;;;;;;19.54;48.35;99190.88;4965877;28;20058;-61
2022/12/14 03:41:02;;;;;;;62.90;33.13;;;;;;;20.18;47.44;99195.38;4965068;28;20048;-61
2022/12/14 03:44:07;;;;;;;63.35;32.15;;;;;;;20.52;46.15;99193.06;4964543;28;20133;-60
2022/12/14 03:47:27;;;;;;;61.65;32.70;;;;;;;21.28;43.79;99197.03;4930226;29;20646;-60
2022/12/14 03:50:15;;;;;;;60.13;30.15;;;;;;;21.88;43.08;99200.03;4931503;28;20096;-61
2022/12/14 03:53:10;;;;;;;60.75;32.92;;;;;;;22.40;41.68;99211.66;4950390;28;20055;-61
2022/12/14 03:56:16;;;;;;;68.53;34.08;;;;;;;22.55;40.40;99208.03;4944642;28;20499;-61
2022/12/14 03:59:15;;;;;;;62.47;33.08;;;;;;;22.62;39.87;99208.56;4945594;29;20146;-60
2022/12/14 04:02:20;;;;;;;63.77;35.00;;;;;;;23.10;40.65;99212.66;4931127;28;20058;-60
2022/12/14 04:05:26;;;;;;;62.40;35.45;;;;;;;23.32;39.43;99220.47;4945088;28;20065;-61
2022/12/14 04:08:12;;;;;;;59.17;35.17;;;;;;;23.33;37.87;99216.59;4940015;28;20046;-64
2022/12/14 04:20:50;;;;;;;62.72;34.47;;;;;;;23.23;38.78;99250.34;4927371;29;20059;-62
2022/12/14 04:27:04;;;;;;;62.22;32.70;;;;;;;23.39;38.01;99254.63;4952789;28;20151;-64
2022/12/14 04:29:55;;;;;;;67.70;32.38;;;;;;;23.05;37.52;99249.13;4950892;28;20055;-65
2022/12/14 04:32:47;;;;;;;63.83;31.27;;;;;;;22.63;39.12;99250.41;4955881;28;20556;-62
2022/12/14 04:35:40;;;;;;;51.38;31.40;;;;;;;23.04;38.72;99247.47;4951341;28;20059;-68
2022/12/14 04:38:40;;;;;;;60.85;30.88;;;;;;;22.98;36.84;99243.91;4953555;28;20078;-65
2022/12/14 04:41:29;;;;;;;56.35;31.70;;;;;;;22.78;38.08;99252.25;4956206;28;20097;-66
2022/12/14 04:44:38;;;;;;;60.85;31.95;;;;;;;22.30;37.83;99250.00;4948624;28;20569;-65
2022/12/14 04:47:32;;;;;;;58.70;31.08;;;;;;;22.00;39.06;99254.38;4956630;28;20047;-65
2022/12/14 04:50:35;;;;;;;64.15;31.85;;;;;;;21.74;40.05;99255.50;4947405;28;20109;-62
2022/12/14 04:53:23;;;;;;;53.30;29.38;;;;;;;21.94;41.04;99269.16;4920694;29;20122;-63
2022/12/14 04:56:29;;;;;;;61.85;31.33;;;;;;;22.06;40.56;99258.75;4941756;29;20066;-60
2022/12/14 04:59:19;;;;;;;57.47;30.13;;;;;;;21.60;39.79;99261.53;4929211;29;20047;-61
2022/12/14 05:02:48;;;;;;;50.80;31.77;;;;;;;21.60;42.14;99267.00;4948581;28;20411;-65
2022/12/14 05:06:13;;;;;;;47.28;28.13;;;;;;;21.10;38.99;99261.19;4921127;28;20625;-61
2022/12/14 05:09:16;;;;;;;48.17;26.38;;;;;;;21.24;39.07;99261.47;4943988;29;20141;-61
2022/12/14 05:12:19;;;;;;;49.60;27.10;;;;;;;21.09;37.51;99261.44;4944425;28;20483;-61
2022/12/14 05:15:11;;;;;;;68.43;30.45;;;;;;;21.19;38.87;99257.91;4941759;28;20058;-61
2022/12/14 05:18:10;;;;;;;55.60;31.90;;;;;;;21.56;39.13;99251.44;4948596;28;20055;-61
2022/12/14 05:20:47;;;;;;;59.10;32.67;;;;;;;21.27;39.48;99255.47;4944507;28;20502;-61
2022/12/14 05:23:35;;;;;;;65.00;33.20;;;;;;;21.24;41.20;99249.72;4963948;28;20518;-61
2022/12/14 05:26:25;;;;;;;61.35;32.10;;;;;;;21.16;39.94;99253.00;4948678;29;20079;-61
2022/12/14 05:29:21;;;;;;;64.50;33.17;;;;;;;21.05;39.50;99238.50;4938936;28;20051;-61
2022/12/14 05:31:56;;;;;;;55.75;31.60;;;;;;;21.52;41.70;99239.41;4950644;28;20098;-61
2022/12/14 05:34:44;;;;;;;67.28;33.13;;;;;;;21.43;41.10;99233.63;4932116;29;20058;-61
2022/12/14 05:37:27;;;;;;;59.33;33.53;;;;;;;21.52;39.54;99234.78;4948385;29;20055;-61
2022/12/14 05:40:16;;;;;;;66.22;35.13;;;;;;;21.76;39.43;99234.19;4947248;29;20138;-61
2022/12/14 05:42:58;;;;;;;53.95;31.20;;;;;;;21.79;38.41;99225.47;4946392;29;20110;-61
2022/12/14 05:45:52;;;;;;;61.42;32.50;;;;;;;22.08;37.73;99231.94;4961203;28;20134;-59
2022/12/14 05:48:29;;;;;;;60.05;34.03;;;;;;;22.88;36.68;99224.81;4966857;28;20062;-61
2022/12/14 05:51:18;;;;;;;59.10;32.72;;;;;;;23.43;36.43;99224.75;4966235;28;20050;-58
2022/12/14 05:54:00;;;;;;;67.95;33.85;;;;;;;23.06;36.51;99207.78;4963362;28;20046;-59
2022/12/14 05:56:42;;;;;;;58.38;30.25;;;;;;;23.20;37.91;99223.56;4966261;28;20422;-59
2022/12/14 05:59:31;;;;;;;57.78;31.52;;;;;;;23.45;36.15;99223.34;4962008;28;20493;-60
2022/12/14 06:02:23;;;;;;;50.38;29.30;;;;;;;23.36;35.71;99216.84;4965795;28;20043;-60
2022/12/14 06:05:11;;;;;;;51.80;29.02;;;;;;;23.36;36.36;99213.31;4961522;28;20043;-61
2022/12/14 06:08:01;;;;;;;60.55;28.17;;;;;;;23.63;36.45;99213.59;4962306;28;20431;-60
2022/12/14 06:10:44;;;;;;;58.42;29.02;;;;;;;23.42;36.38;99201.19;4966352;28;20071;-64
2022/12/14 06:13:33;;;;;;;57.13;27.15;;;;;;;23.52;35.16;99206.59;4622851;28;10000565;-60
2022/12/14 06:16:20;;;;;;;51.42;26.88;;;;;;;23.77;34.93;99201.97;4960284;28;20155;-60
2022/12/14 06:19:11;;;;;;;53.13;27.45;;;;;;;23.56;34.74;99190.38;4964418;28;20058;-60
2022/12/14 06:22:00;;;;;;;49.70;25.23;;;;;;;23.93;36.27;99192.53;4966123;28;20160;-59
2022/12/14 06:24:41;;;;;;;48.67;25.65;;;;;;;23.29;33.74;99185.41;4965463;28;20054;-59
2022/12/14 06:27:36;;;;;;;41.50;25.15;;;;;;;23.73;34.01;99185.31;4963834;28;20151;-59
2022/12/14 06:30:12;;;;;;;41.20;21.67;;;;;;;23.65;31.95;99178.53;4964753;28;20687;-60
2022/12/14 06:33:07;;;;;;;52.00;29.25;;;;;;;23.73;34.33;99176.25;4965795;28;20062;-59
2022/12/14 06:35:45;;;;;;;52.70;27.08;;;;;;;24.08;34.48;99171.53;4966588;28;20051;-60
2022/12/14 06:38:34;;;;;;;56.28;27.48;;;;;;;24.07;34.00;99167.97;4966704;28;20050;-60
2022/12/14 06:41:27;;;;;;;46.63;27.25;;;;;;;24.23;34.31;99158.44;4964337;28;20132;-59
2022/12/14 06:44:13;;;;;;;48.55;23.92;;;;;;;23.98;33.65;99156.84;4965295;28;20045;-63
2022/12/14 06:47:09;;;;;;;39.63;19.83;;;;;;;24.02;31.62;99157.88;4945741;29;20047;-61
2022/12/14 06:49:44;;;;;;;39.70;22.33;;;;;;;23.96;33.10;99155.47;4945030;29;20285;-61
2022/12/14 06:52:33;;;;;;;47.75;24.55;;;;;;;24.34;32.17;99147.34;4946383;29;20977;-59
2022/12/14 06:55:22;;;;;;;37.13;23.10;;;;;;;24.42;32.93;99143.97;4945183;29;20043;-60
2022/12/14 06:58:13;;;;;;;41.15;22.08;;;;;;;24.14;32.99;99132.78;4947167;28;20054;-59
2022/12/14 07:01:09;;;;;;;42.97;21.80;;;;;;;24.27;32.47;99135.91;4944983;28;20059;-59
2022/12/14 07:03:54;;;;;;;45.78;24.38;;;;;;;24.51;32.74;99119.41;4947103;29;20059;-61
2022/12/14 07:06:46;;;;;;;34.53;20.30;;;;;;;24.36;33.86;99124.00;4945478;29;20055;-61
2022/12/14 07:09:27;;;;;;;36.22;19.38;;;;;;;24.45;32.20;99126.88;4945798;29;20487;-60
2022/12/14 07:12:16;;;;;;;40.13;19.90;;;;;;;24.39;32.36;99126.13;4945906;29;20791;-60
2022/12/14 07:14:58;;;;;;;37.58;18.77;;;;;;;24.07;32.50;99126.03;4941622;28;20058;-59
2022/12/14 07:17:48;;;;;;;31.17;18.58;;;;;;;24.36;31.34;99118.53;4944635;28;20126;-61
2022/12/14 07:20:30;;;;;;;27.27;16.80;;;;;;;24.57;30.65;99107.25;4945096;29;20047;-60
2022/12/14 07:23:19;;;;;;;30.33;19.15;;;;;;;23.79;32.06;99109.38;4947075;28;20114;-62
2022/12/14 07:26:08;;;;;;;41.42;18.65;;;;;;;23.80;31.32;99111.00;4945738;28;20047;-62
2022/12/14 07:28:51;;;;;;;35.88;17.27;;;;;;;24.06;32.17;99099.69;4929056;29;20519;-61
2022/12/14 07:31:40;;;;;;;41.30;19.48;;;;;;;23.83;32.20;99102.19;4946353;28;20051;-60
2022/12/14 07:34:22;;;;;;;30.10;16.25;;;;;;;24.19;31.60;99086.09;4929690;28;20055;-60
2022/12/14 07:37:13;;;;;;;23.80;14.90;;;;;;;24.26;31.13;99088.47;4945499;28;20065;-60
2022/12/14 07:40:03;;;;;;;33.88;15.13;;;;;;;24.33;30.17;99086.19;4946243;28;20379;-59
2022/12/14 07:42:48;;;;;;;31.73;16.15;;;;;;;24.46;32.91;99084.63;4947267;28;20146;-60
2022/12/14 07:45:43;;;;;;;35.72;16.48;;;;;;;24.39;32.06;99082.25;4956180;28;20058;-60
2022/12/14 07:48:33;;;;;;;25.40;14.73;;;;;;;24.42;30.42;99087.16;4962254;28;20156;-60
2022/12/14 07:51:26;;;;;;;25.30;13.98;;;;;;;24.26;30.54;99082.19;4964700;28;20139;-60
2022/12/14 07:54:07;;;;;;;27.90;15.32;;;;;;;23.96;31.73;99076.81;4969089;28;20057;-59
2022/12/14 07:56:57;;;;;;;25.60;14.82;;;;;;;24.21;33.17;99077.59;4973367;28;20054;-61
2022/12/14 07:59:38;;;;;;;28.95;16.70;;;;;;;24.07;32.33;99071.19;4968063;28;20073;-60
2022/12/14 08:02:32;;;;;;;31.83;17.08;;;;;;;24.04;32.57;99070.66;4965344;28;20647;-61
2022/12/14 08:05:15;;;;;;;39.25;17.52;;;;;;;24.40;33.00;99055.63;4963707;28;20382;-61
2022/12/14 08:08:03;;;;;;;38.00;17.85;;;;;;;24.27;32.90;99056.38;4964585;28;20506;-61
2022/12/14 08:10:48;;;;;;;26.05;15.40;;;;;;;24.03;33.18;99055.31;4963571;28;20058;-61
2022/12/14 08:13:38;;;;;;;30.27;16.45;;;;;;;23.86;32.66;99055.00;4961464;28;20129;-61
2022/12/14 08:16:19;;;;;;;24.42;15.45;;;;;;;24.36;33.28;99051.84;4968061;28;20500;-60
2022/12/14 08:19:08;;;;;;;31.15;16.15;;;;;;;24.12;32.72;99052.75;4972821;28;20077;-60
2022/12/14 08:21:51;;;;;;;25.23;15.32;;;;;;;24.22;33.08;99040.81;4968114;28;20066;-61
2022/12/14 08:24:40;;;;;;;24.35;15.05;;;;;;;24.26;34.51;99039.09;4967336;28;20379;-60
2022/12/14 08:27:30;;;;;;;37.28;17.63;;;;;;;23.89;33.58;99028.94;4969928;28;20043;-61
2022/12/14 08:30:19;;;;;;;30.08;14.90;;;;;;;24.04;32.67;99031.47;4971218;28;20050;-60
2022/12/14 08:33:00;;;;;;;26.70;13.02;;;;;;;23.98;32.70;99025.25;4969418;28;20061;-61
2022/12/14 08:35:50;;;;;;;20.67;11.88;;;;;;;24.11;33.23;99017.38;4965072;28;20142;-61
2022/12/14 08:38:33;;;;;;;19.83;12.15;;;;;;;24.13;32.77;99020.66;4963646;28;20055;-61
2022/12/14 08:41:22;;;;;;;19.70;10.63;;;;;;;24.27;31.28;99021.56;4965407;28;20051;-61
2022/12/14 08:44:17;;;;;;;22.27;9.98;;;;;;;24.40;32.55;99025.44;4963362;28;20057;-61
2022/12/14 08:46:59;;;;;;;22.10;12.02;;;;;;;24.38;32.42;99017.53;4965627;28;20047;-62
2022/12/14 08:49:48;;;;;;;21.75;10.77;;;;;;;23.99;31.63;99017.81;4965683;28;20362;-61
2022/12/14 08:52:30;;;;;;;24.60;11.38;;;;;;;24.06;32.56;99015.53;4963838;28;20043;-63
2022/12/14 08:55:20;;;;;;;18.90;10.63;;;;;;;23.91;31.99;99018.50;4950904;28;20043;-64
2022/12/14 08:58:15;;;;;;;15.02;9.48;;;;;;;24.26;31.13;99008.94;4964965;28;20055;-60
2022/12/14 09:01:13;;;;;;;22.40;11.18;;;;;;;23.95;30.90;99016.78;4968942;28;20043;-62
2022/12/14 09:03:55;;;;;;;18.40;9.73;;;;;;;23.86;31.24;99016.63;4967628;28;20049;-62
2022/12/14 09:06:44;;;;;;;18.63;9.40;;;;;;;23.64;30.99;99015.22;4968506;28;20053;-64
2022/12/14 09:09:26;;;;;;;20.30;10.02;;;;;;;23.83;31.54;99009.00;4950266;28;20162;-65
2022/12/14 09:12:15;;;;;;;20.38;9.32;;;;;;;23.99;31.05;99010.41;4966038;28;20129;-61
2022/12/14 09:14:57;;;;;;;18.13;9.20;;;;;;;23.90;31.38;99012.19;4966908;28;20395;-62
2022/12/14 09:17:47;;;;;;;19.10;9.98;;;;;;;24.04;30.53;99007.59;4968216;28;20054;-60
2022/12/14 09:20:29;;;;;;;21.38;10.40;;;;;;;24.07;32.04;98997.16;4967867;28;20133;-60
2022/12/14 09:23:18;;;;;;;26.60;11.20;;;;;;;24.04;31.19;99001.31;4965726;28;20134;-61
2022/12/14 09:26:02;;;;;;;20.88;11.63;;;;;;;23.88;32.31;99003.44;4950074;28;20590;-63
2022/12/14 09:29:02;;;;;;;21.15;11.20;;;;;;;24.00;31.99;99006.56;4966290;28;20521;-62
2022/12/14 09:31:44;;;;;;;21.00;11.65;;;;;;;24.05;32.72;99002.94;4967219;28;20074;-66
2022/12/14 09:34:33;;;;;;;25.80;13.88;;;;;;;24.03;32.70;99000.47;4966398;28;20644;-68
2022/12/14 09:37:14;;;;;;;17.55;10.60;;;;;;;23.98;32.34;98992.34;4966751;28;20042;-65
2022/12/14 09:40:03;;;;;;;21.75;10.98;;;;;;;23.86;32.64;99000.19;4967834;28;20101;-62
2022/12/14 09:43:06;;;;;;;32.40;12.43;;;;;;;23.79;32.36;98991.53;4964184;28;21244;-62
2022/12/14 09:46:15;;;;;;;26.75;12.77;;;;;;;23.96;32.37;98993.72;4964735;28;20050;-61
2022/12/14 09:48:52;;;;;;;24.33;11.27;;;;;;;23.67;32.42;98989.16;4966413;28;20050;-61
2022/12/14 09:51:47;;;;;;;24.42;12.88;;;;;;;23.69;34.23;98992.41;4966424;28;20399;-64
2022/12/14 09:54:26;;;;;;;20.52;10.82;;;;;;;23.76;33.44;98989.31;4966360;28;20059;-64
2022/12/14 09:57:29;;;;;;;21.40;11.05;;;;;;;23.68;32.44;98982.59;4967159;28;20137;-68
2022/12/14 10:00:26;;;;;;;21.58;10.40;;;;;;;23.69;32.33;98984.19;4952826;28;20058;-67
2022/12/14 10:03:49;;;;;;;17.67;9.57;;;;;;;23.81;31.80;98983.81;4964768;28;20046;-61
2022/12/14 10:06:48;;;;;;;25.40;9.77;;;;;;;23.60;40.97;98981.31;4908040;29;20048;-66
2022/12/14 10:09:53;;;;;;;20.58;9.98;;;;;;;23.44;35.61;98971.63;4965437;28;20058;-66
2022/12/14 10:12:54;;;;;;;17.42;10.35;;;;;;;23.31;44.30;98981.41;4966308;28;20047;-64
2022/12/14 10:15:50;;;;;;;26.92;10.43;;;;;;;23.25;37.06;98977.06;4964946;28;20112;-67
2022/12/14 10:18:56;;;;;;;17.40;10.48;;;;;;;23.13;38.57;98976.66;4966367;28;20050;-66
2022/12/14 10:21:50;;;;;;;17.45;10.77;;;;;;;23.04;36.92;98976.47;4966287;28;20059;-66
2022/12/14 10:25:06;;;;;;;20.98;10.40;;;;;;;23.08;37.60;98976.72;4965132;28;20046;-64
2022/12/14 10:27:59;;;;;;;20.55;10.55;;;;;;;23.00;34.08;98981.66;4965002;28;20129;-65
2022/12/14 10:30:53;;;;;;;16.10;10.25;;;;;;;22.97;35.52;98979.53;4968090;28;20047;-66
2022/12/14 10:33:41;;;;;;;20.50;11.32;;;;;;;23.04;37.66;98979.22;4966030;28;20552;-65
2022/12/14 10:36:59;;;;;;;17.00;10.60;;;;;;;22.96;36.06;98971.59;4966057;28;20054;-66
2022/12/14 10:40:00;;;;;;;23.23;12.20;;;;;;;22.70;35.98;98974.59;4971119;28;20065;-63
2022/12/14 10:43:22;;;;;;;19.50;9.68;;;;;;;22.91;37.76;98977.97;4963122;28;20053;-62
2022/12/14 10:46:40;;;;;;;19.13;10.75;;;;;;;22.83;36.24;98982.13;4957456;28;20560;-63
2022/12/14 10:49:15;;;;;;;18.77;10.40;;;;;;;22.71;37.07;98980.88;4964477;28;20113;-63
2022/12/14 10:52:17;;;;;;;19.48;10.52;;;;;;;22.70;37.21;98976.50;4969878;28;20105;-65
2022/12/14 10:55:01;;;;;;;17.10;10.93;;;;;;;22.65;36.08;98974.63;4974577;28;20050;-62
2022/12/14 10:57:58;;;;;;;27.00;11.57;;;;;;;22.45;40.24;98978.34;4972898;28;20059;-65
2022/12/14 11:00:37;;;;;;;17.67;10.73;;;;;;;22.48;39.25;98978.59;4964161;28;20054;-62
2022/12/14 11:03:33;;;;;;;17.58;11.10;;;;;;;22.41;39.58;98983.59;4965343;28;20085;-63
2022/12/14 11:06:18;;;;;;;28.48;11.48;;;;;;;22.28;40.35;98982.31;4965483;28;20046;-62
2022/12/14 11:09:26;;;;;;;20.77;10.65;;;;;;;22.23;37.90;98982.31;4951759;28;20049;-64
2022/12/14 11:12:06;;;;;;;23.75;10.90;;;;;;;22.23;39.47;98993.25;4964342;28;20094;-64
2022/12/14 11:15:05;;;;;;;23.55;11.73;;;;;;;22.28;37.77;98989.72;4965784;28;20042;-64
2022/12/14 11:17:49;;;;;;;14.73;10.57;;;;;;;22.29;36.77;98996.78;4962884;28;20059;-63
2022/12/14 11:20:59;;;;;;;20.65;10.88;;;;;;;22.21;37.94;98989.16;4964206;28;20503;-65
2022/12/14 11:23:50;;;;;;;19.77;11.20;;;;;;;21.98;42.38;98991.50;4965929;28;20149;-62
2022/12/14 11:26:49;;;;;;;24.38;11.73;;;;;;;21.79;41.67;98994.06;4967570;28;20474;-64
2022/12/14 11:29:37;;;;;;;26.75;12.73;;;;;;;21.75;40.33;98992.97;4968901;28;20177;-60
2022/12/14 11:32:25;;;;;;;20.58;11.50;;;;;;;21.76;41.90;98997.34;4963182;28;20050;-63
2022/12/14 11:35:07;;;;;;;23.15;12.73;;;;;;;21.64;43.70;98989.47;4951172;28;20069;-59
2022/12/14 11:38:00;;;;;;;20.90;12.52;;;;;;;21.50;45.44;98994.72;4968812;28;20609;-62
2022/12/14 11:40:42;;;;;;;28.05;12.25;;;;;;;21.55;41.54;98993.06;4965976;28;20138;-63
2022/12/14 11:43:37;;;;;;;31.92;12.02;;;;;;;21.44;38.39;98997.78;4972028;28;20125;-61
2022/12/14 11:46:26;;;;;;;20.58;11.07;;;;;;;21.52;40.96;99002.66;4965373;28;20149;-61
2022/12/14 11:49:30;;;;;;;27.40;11.57;;;;;;;21.44;42.62;99004.03;4970835;28;20046;-62
2022/12/14 11:52:05;;;;;;;24.85;12.65;;;;;;;21.31;43.69;99008.13;4966767;28;20046;-60
2022/12/14 11:54:54;;;;;;;38.40;13.48;;;;;;;21.20;42.96;99003.00;4965842;28;20047;-62
2022/12/14 11:57:51;;;;;;;26.42;14.35;;;;;;;21.20;43.67;99013.91;4970347;28;20053;-61
2022/12/14 12:01:04;;;;;;;25.42;13.70;;;;;;;21.13;45.40;99014.19;4968468;28;20141;-62
2022/12/14 12:04:00;;;;;;;28.83;13.75;;;;;;;21.00;46.49;99018.31;4965876;28;20054;-60
2022/12/14 12:06:42;;;;;;;27.85;14.40;;;;;;;20.80;49.49;99010.94;4973280;28;20053;-59
2022/12/14 12:09:33;;;;;;;32.90;16.60;;;;;;;20.65;47.79;99014.50;4970794;28;20124;-61
2022/12/14 12:12:19;;;;;;;33.10;16.02;;;;;;;20.51;49.66;99008.75;4969543;28;20046;-61
2022/12/14 12:15:10;;;;;;;41.45;17.65;;;;;;;20.35;50.42;99009.84;4608182;28;10001620;-62
2022/12/14 12:18:04;;;;;;;41.83;19.70;;;;;;;20.24;51.79;99009.00;4955333;28;20144;-61
2022/12/14 12:21:00;;;;;;;38.85;17.40;;;;;;;20.15;51.93;99005.97;4965201;28;20056;-61
2022/12/14 12:23:57;;;;;;;34.30;16.88;;;;;;;19.98;51.85;99005.41;4963607;28;20069;-61
2022/12/14 12:26:59;;;;;;;;;;;;;;;19.95;51.69;99006.75;4964939;28;20058;-61
2022/12/14 12:30:19;;;;;;;35.05;16.08;;;;;;;19.81;53.69;99005.63;4966708;28;20707;-62
2022/12/14 12:33:43;;;;;;;41.15;17.27;;;;;;;19.66;54.25;99013.69;4978103;28;20058;-61
2022/12/14 12:36:32;;;;;;;40.40;16.83;;;;;;;19.55;54.60;99021.03;4969460;28;20046;-61
2022/12/14 12:39:45;;;;;;;36.58;17.42;;;;;;;19.42;54.52;99014.16;4968260;28;20437;-63
2022/12/14 12:42:56;;;;;;;52.63;18.47;;;;;;;19.40;54.29;99015.50;4973679;28;20050;-61
2022/12/14 12:45:42;;;;;;;;;;;;;;;19.40;54.07;99018.22;4973244;28;20142;-64
2022/12/14 12:48:49;;;;;;;43.88;18.20;;;;;;;19.19;53.65;99015.38;4970390;28;19972;-60
2022/12/14 12:51:42;;;;;;;53.20;19.90;;;;;;;19.16;54.63;99021.34;4971540;28;20138;-62
2022/12/14 12:54:43;;;;;;;40.13;18.25;;;;;;;19.03;56.58;99022.63;4966523;28;20074;-60
2022/12/14 12:57:19;;;;;;;47.60;19.55;;;;;;;18.97;55.13;99021.78;4956231;28;20057;-61
2022/12/14 13:00:18;;;;;;;39.50;18.58;;;;;;;19.04;56.43;99026.19;4963999;28;20105;-61
2022/12/14 13:03:10;;;;;;;58.65;20.60;;;;;;;18.87;56.69;99029.84;4972247;28;20065;-61
2022/12/14 13:06:13;;;;;;;55.77;25.87;;;;;;;18.91;56.26;99030.97;4964898;28;20046;-61
2022/12/14 13:09:02;;;;;;;61.72;30.52;;;;;;;18.69;57.92;99033.78;4970657;28;20504;-59
2022/12/14 13:11:59;;;;;;;84.55;33.65;;;;;;;18.59;56.74;99033.66;4966794;28;20065;-58
2022/12/14 13:14:43;;;;;;;82.70;35.63;;;;;;;18.66;57.25;99038.91;4967734;28;20054;-60
2022/12/14 13:17:43;;;;;;;78.53;34.25;;;;;;;18.57;58.42;99042.09;4968829;28;20121;-62
2022/12/14 13:20:33;;;;;;;70.35;30.60;;;;;;;18.54;58.41;99045.31;4966632;28;20055;-61
2022/12/14 13:23:35;;;;;;;70.13;27.38;;;;;;;18.39;58.52;99051.44;4615099;28;9999918;-63